Portada
METAR-TAF:

METAR-TAF

Aeroports :

Lar, Iran

latitud: 27-40-26N, longitud: 054-22-53E, altitud: 792 m

Observació

L'informe es va fer fa 20 minuts, a les 17:00 UTC
Vent calma
Temperatura 33°C
Humitat 20%
Pressió 1009 hPa
Visibilitat 10 km o més
sense núvols per sota de 1500 mi sense presència de cumulonimbus.

METAR: OISL 191700Z 00000KT CAVOK 33/07 Q1009 A2980

Hora: 21:50 (17:20 UTC)

Pronòstic

L'informe es va fer fa 6 hores i 20 minuts, a les 11:00 UTC
Pronòstic vàlid del 19 a les 12 UTC al 20 a les 18 UTC
Vent 10 kt del Nord
Visibilitat 10 km o més
sense núvols per sota de 1500 mi sense presència de cumulonimbus.

TAF: OISL 191100Z 1912/2018 35010KT CAVOK

Observacions i pronòstics meteorològics de més de 4000 aeroports (METAR i TAF).

Les estacions disponibles són els punts grocs i vermells al mapa.

Posi el ratolí al punt desitjat per veure el nom de l'estació.

Feu clic per veure les observacions i els pronòstics meteorològics.

Per canviar el mapa: feu clic els botons verds amb una creu de color negre per apropar; al botó verd amb un guió per allunyar la imatge; o en les fletxes verdes per a mapes adjacents.


METAR-TAF: